Time;durP1;ratioP1;P1;durP2;ratioP2;P2;SDS_P1;SDS_P2;PMS_P1;PMS_P2;Temp;Humidity;BMP_temperature;BMP_pressure;BME280_temperature;BME280_humidity;BME280_pressure;Samples;Min_cycle;Max_cycle;Signal;HPM_P1;HPM_P2
2022/12/08 00:01:32;;;;;;;30.08;19.90;;;;;;;1.42;100.00;100511.22;4935465;29;20055;-72
2022/12/08 00:04:02;;;;;;;30.23;19.70;;;;;;;1.51;100.00;100519.88;4934365;29;20490;-72
2022/12/08 00:09:32;;;;;;;29.92;19.95;;;;;;;1.54;100.00;100508.63;4932776;29;20055;-73
2022/12/08 00:12:15;;;;;;;25.98;18.33;;;;;;;1.54;100.00;100501.38;4933873;29;20059;-73
2022/12/08 00:14:45;;;;;;;30.23;19.70;;;;;;;1.56;100.00;100501.97;4921794;29;20483;-73
2022/12/08 00:17:15;;;;;;;31.42;20.20;;;;;;;1.47;100.00;100504.13;4922147;29;20047;-72
2022/12/08 00:19:43;;;;;;;30.95;19.48;;;;;;;1.42;100.00;100493.16;4933439;29;20050;-72
2022/12/08 00:22:13;;;;;;;29.85;19.92;;;;;;;1.48;100.00;100499.56;4935386;29;20051;-73
2022/12/08 00:24:44;;;;;;;27.50;18.42;;;;;;;1.39;100.00;100500.88;4931276;29;20055;-73
2022/12/08 00:27:14;;;;;;;29.92;18.40;;;;;;;1.47;100.00;100500.63;4935371;29;20052;-73
2022/12/08 00:29:43;;;;;;;26.27;18.05;;;;;;;1.50;100.00;100499.34;4932562;29;20052;-73
2022/12/08 00:32:11;;;;;;;27.15;19.00;;;;;;;1.41;100.00;100507.69;4933699;29;20039;-72
2022/12/08 00:34:39;;;;;;;29.80;19.58;;;;;;;1.57;100.00;100497.41;4934597;29;20044;-72
2022/12/08 00:37:07;;;;;;;28.83;18.30;;;;;;;1.48;100.00;100499.56;4935300;29;20052;-73
2022/12/08 00:39:35;;;;;;;26.85;18.88;;;;;;;1.33;100.00;100497.19;4935320;29;20051;-73
2022/12/08 00:42:13;;;;;;;27.45;18.13;;;;;;;1.40;100.00;100497.97;4934676;29;20513;-73
2022/12/08 00:44:42;;;;;;;32.15;20.27;;;;;;;1.50;100.00;100502.03;4949735;29;20052;-72
2022/12/08 00:47:12;;;;;;;30.98;19.10;;;;;;;1.53;100.00;100493.50;4935180;29;20046;-72
2022/12/08 00:49:40;;;;;;;30.67;19.77;;;;;;;1.48;100.00;100483.38;4949484;29;20431;-72
2022/12/08 00:52:08;;;;;;;34.88;21.30;;;;;;;1.50;100.00;100486.66;4934387;29;20369;-71
2022/12/08 00:54:36;;;;;;;34.08;20.27;;;;;;;1.47;100.00;100487.13;4934973;29;20050;-73
2022/12/08 00:57:04;;;;;;;31.58;20.17;;;;;;;1.46;100.00;100490.84;4934654;29;20058;-74
2022/12/08 00:59:32;;;;;;;31.13;18.95;;;;;;;1.35;100.00;100487.00;4949562;29;20062;-74
2022/12/08 01:02:00;;;;;;;29.63;18.73;;;;;;;1.32;100.00;100487.47;4934771;29;20059;-73
2022/12/08 01:04:28;;;;;;;30.88;20.08;;;;;;;1.31;100.00;100481.22;4932346;29;20051;-73
2022/12/08 01:06:56;;;;;;;32.05;19.90;;;;;;;1.34;100.00;100483.50;4933880;29;20056;-73
2022/12/08 01:09:23;;;;;;;29.48;18.20;;;;;;;1.45;100.00;100484.66;4932496;29;20483;-73
2022/12/08 01:11:51;;;;;;;27.77;20.08;;;;;;;1.41;100.00;100502.31;4932928;29;20415;-72
2022/12/08 01:14:19;;;;;;;27.13;17.85;;;;;;;1.40;100.00;100494.44;4934516;29;20047;-72
2022/12/08 01:16:47;;;;;;;27.52;19.17;;;;;;;1.42;100.00;100489.66;4934025;29;20055;-73
2022/12/08 01:19:16;;;;;;;27.20;19.20;;;;;;;1.51;100.00;100498.28;4933787;29;20051;-72
2022/12/08 01:21:45;;;;;;;27.48;18.88;;;;;;;1.44;100.00;100493.78;4918453;29;20051;-72
2022/12/08 01:24:16;;;;;;;28.63;17.88;;;;;;;1.40;100.00;100492.56;4933480;29;20036;-72
2022/12/08 01:26:44;;;;;;;28.35;17.67;;;;;;;1.30;100.00;100484.16;4933203;29;20052;-72
2022/12/08 01:29:12;;;;;;;29.50;17.88;;;;;;;1.27;100.00;100490.00;4933971;29;20059;-72
2022/12/08 01:31:40;;;;;;;29.55;19.25;;;;;;;1.32;100.00;100488.28;4933141;29;20413;-72
2022/12/08 01:34:10;;;;;;;27.65;18.13;;;;;;;1.36;100.00;100479.75;4931645;29;20063;-71
2022/12/08 01:36:38;;;;;;;28.13;18.98;;;;;;;1.26;100.00;100481.06;4947662;29;20048;-72
2022/12/08 01:39:09;;;;;;;25.55;17.63;;;;;;;1.22;100.00;100466.38;4933932;29;20074;-72
2022/12/08 01:41:37;;;;;;;29.52;19.25;;;;;;;1.23;100.00;100476.13;4934030;29;20043;-72
2022/12/08 01:44:25;;;;;;;27.70;18.50;;;;;;;1.29;100.00;100477.09;4948222;29;20518;-72
2022/12/08 01:46:55;;;;;;;26.95;18.27;;;;;;;1.24;100.00;100476.94;4930570;29;20067;-72
2022/12/08 01:49:26;;;;;;;28.38;18.98;;;;;;;1.19;100.00;100474.91;4948022;29;20047;-72
2022/12/08 01:52:22;;;;;;;27.13;18.38;;;;;;;1.26;100.00;100475.66;4931737;29;20055;-72
2022/12/08 01:55:02;;;;;;;30.58;19.55;;;;;;;1.23;100.00;100469.91;4933428;29;20051;-72
2022/12/08 01:57:39;;;;;;;28.23;19.88;;;;;;;1.30;100.00;100463.41;4932972;29;20055;-72
2022/12/08 02:00:11;;;;;;;25.90;18.70;;;;;;;1.36;100.00;100463.56;4932064;29;20040;-72
2022/12/08 02:02:53;;;;;;;27.50;18.25;;;;;;;1.33;100.00;100457.56;4935025;29;20399;-71
2022/12/08 02:05:24;;;;;;;28.98;18.83;;;;;;;1.36;100.00;100466.28;4951547;29;20051;-72
2022/12/08 02:07:54;;;;;;;30.67;19.00;;;;;;;1.36;100.00;100458.19;4938164;29;20047;-72
2022/12/08 02:10:23;;;;;;;28.88;19.35;;;;;;;1.37;100.00;100462.53;4937326;29;20047;-72
2022/12/08 02:12:54;;;;;;;28.80;19.40;;;;;;;1.38;100.00;100453.38;4935854;29;20054;-72
2022/12/08 02:15:42;;;;;;;30.33;18.80;;;;;;;1.30;100.00;100449.94;4937031;29;20044;-71
2022/12/08 02:18:28;;;;;;;26.55;18.55;;;;;;;1.31;100.00;100451.56;4936924;29;20048;-72
2022/12/08 02:21:07;;;;;;;26.05;18.33;;;;;;;1.38;100.00;100448.84;4931424;29;20399;-72
2022/12/08 02:24:09;;;;;;;28.38;19.38;;;;;;;1.37;100.00;100443.66;4935059;29;20427;-71
2022/12/08 02:26:55;;;;;;;27.83;20.13;;;;;;;1.29;100.00;100433.97;4936281;29;20062;-72
2022/12/08 02:29:38;;;;;;;29.83;18.67;;;;;;;1.27;100.00;100444.16;4935880;29;20039;-71
2022/12/08 02:32:15;;;;;;;28.85;19.42;;;;;;;1.23;100.00;100443.78;4937537;29;20376;-72
2022/12/08 02:34:52;;;;;;;26.67;18.05;;;;;;;1.27;100.00;100436.88;4950709;29;20530;-72
2022/12/08 02:37:25;;;;;;;28.63;19.15;;;;;;;1.24;100.00;100431.94;4937198;29;20064;-72
2022/12/08 02:40:15;;;;;;;32.72;19.75;;;;;;;1.31;100.00;100435.41;4937575;29;20403;-72
2022/12/08 02:42:47;;;;;;;40.58;21.75;;;;;;;1.32;100.00;100430.84;4937538;29;20052;-72
2022/12/08 02:45:38;;;;;;;33.60;20.77;;;;;;;1.31;100.00;100430.00;4937280;29;20056;-72
2022/12/08 02:48:08;;;;;;;28.90;19.50;;;;;;;1.37;100.00;100430.97;4937198;29;20058;-71
2022/12/08 02:50:35;;;;;;;30.88;19.52;;;;;;;1.32;100.00;100428.16;4937041;29;20040;-72
2022/12/08 02:53:04;;;;;;;27.17;18.80;;;;;;;1.39;100.00;100425.38;4936933;29;20096;-72
2022/12/08 02:55:46;;;;;;;26.70;17.95;;;;;;;1.36;100.00;100425.81;4936959;29;20036;-72
2022/12/08 02:58:35;;;;;;;31.77;20.25;;;;;;;1.42;100.00;100422.25;4936598;29;20039;-72
2022/12/08 03:01:18;;;;;;;30.38;19.45;;;;;;;1.33;100.00;100417.13;4936993;29;20051;-72
2022/12/08 03:04:02;;;;;;;30.20;18.77;;;;;;;1.28;100.00;100414.25;4937103;29;20047;-72
2022/12/08 03:06:34;;;;;;;32.70;19.80;;;;;;;1.23;100.00;100414.13;4935807;29;20059;-72
2022/12/08 03:09:33;;;;;;;30.67;19.70;;;;;;;1.29;100.00;100413.25;4936128;29;20044;-71
2022/12/08 03:12:11;;;;;;;30.30;19.60;;;;;;;1.25;100.00;100409.31;4925251;29;20047;-72
2022/12/08 03:14:44;;;;;;;30.83;19.33;;;;;;;1.30;100.00;100412.19;4936139;29;20048;-71
2022/12/08 03:17:14;;;;;;;27.17;18.58;;;;;;;1.32;100.00;100402.00;4936901;29;20051;-71
2022/12/08 03:19:45;;;;;;;33.92;20.05;;;;;;;1.30;100.00;100404.09;4936530;29;20059;-71
2022/12/08 03:22:15;;;;;;;29.33;18.20;;;;;;;1.32;100.00;100410.09;4936552;29;20055;-71
2022/12/08 03:24:45;;;;;;;31.40;18.30;;;;;;;1.32;100.00;100409.28;4935167;29;20059;-72
2022/12/08 03:27:18;;;;;;;26.65;17.98;;;;;;;1.33;100.00;100400.13;4934131;29;20047;-71
2022/12/08 03:29:49;;;;;;;27.35;17.60;;;;;;;1.33;100.00;100400.94;4934366;29;20048;-72
2022/12/08 03:32:43;;;;;;;28.27;17.33;;;;;;;1.23;100.00;100403.34;4934898;29;20051;-72
2022/12/08 03:35:15;;;;;;;28.93;18.33;;;;;;;1.19;100.00;100404.81;4931619;29;20075;-72
2022/12/08 03:37:43;;;;;;;29.33;18.50;;;;;;;1.25;100.00;100408.50;4950255;29;20054;-72
2022/12/08 03:40:14;;;;;;;28.85;18.30;;;;;;;1.38;100.00;100405.69;4935429;29;20398;-71
2022/12/08 03:42:42;;;;;;;24.35;17.10;;;;;;;1.48;100.00;100397.88;4934952;29;20051;-72
2022/12/08 03:45:11;;;;;;;25.88;17.40;;;;;;;1.46;100.00;100413.47;4935415;29;20052;-73
2022/12/08 03:47:39;;;;;;;25.88;15.75;;;;;;;1.25;100.00;100405.78;4935745;29;20081;-72
2022/12/08 03:50:07;;;;;;;23.30;15.98;;;;;;;1.09;100.00;100410.72;4934367;29;20052;-72
2022/12/08 03:52:35;;;;;;;22.63;16.05;;;;;;;1.11;100.00;100407.81;4935341;29;20047;-72
2022/12/08 03:55:03;;;;;;;20.23;13.98;;;;;;;0.96;100.00;100411.66;4934018;29;20060;-72
2022/12/08 03:57:31;;;;;;;24.33;16.00;;;;;;;0.86;100.00;100411.31;4935816;29;20039;-72
2022/12/08 03:59:59;;;;;;;20.67;14.85;;;;;;;0.79;100.00;100406.78;4934124;29;20055;-72
2022/12/08 04:02:27;;;;;;;24.58;16.70;;;;;;;0.61;100.00;100398.66;4930418;29;20042;-72
2022/12/08 04:04:55;;;;;;;23.58;16.02;;;;;;;0.63;100.00;100408.16;4917755;29;20048;-72
2022/12/08 04:07:23;;;;;;;24.17;15.00;;;;;;;0.56;100.00;100403.84;4919040;29;20071;-72
2022/12/08 04:09:51;;;;;;;22.77;15.65;;;;;;;0.55;100.00;100402.22;4932296;29;20046;-72
2022/12/08 04:12:19;;;;;;;26.55;16.10;;;;;;;0.52;100.00;100401.63;4934647;29;20398;-72
2022/12/08 04:14:46;;;;;;;24.00;17.00;;;;;;;0.62;100.00;100405.69;4948449;29;20058;-72
2022/12/08 04:17:14;;;;;;;23.77;15.60;;;;;;;0.62;100.00;100392.22;4934866;29;20051;-72
2022/12/08 04:19:42;;;;;;;26.88;16.70;;;;;;;0.60;100.00;100392.44;4948697;29;20330;-72
2022/12/08 04:22:10;;;;;;;23.40;16.05;;;;;;;0.57;100.00;100392.88;4935441;29;20039;-72
2022/12/08 04:24:38;;;;;;;24.63;16.67;;;;;;;0.44;100.00;100392.97;4949311;29;20403;-72
2022/12/08 04:27:06;;;;;;;25.85;17.38;;;;;;;0.52;100.00;100382.75;4924785;29;20051;-72
2022/12/08 04:29:34;;;;;;;24.33;16.73;;;;;;;0.61;100.00;100379.78;4933787;29;20514;-72
2022/12/08 04:32:02;;;;;;;25.13;17.05;;;;;;;0.68;100.00;100379.75;4934036;29;20050;-71
2022/12/08 04:34:30;;;;;;;24.23;15.73;;;;;;;0.59;100.00;100384.59;4934756;29;20043;-72
2022/12/08 04:36:58;;;;;;;22.58;16.30;;;;;;;0.47;100.00;100382.59;4935347;29;20055;-72
2022/12/08 04:39:25;;;;;;;23.58;15.90;;;;;;;0.62;100.00;100394.91;4934963;29;20063;-72
2022/12/08 04:41:53;;;;;;;23.77;16.02;;;;;;;0.61;100.00;100386.00;4935051;29;20052;-72
2022/12/08 04:44:21;;;;;;;22.63;15.90;;;;;;;0.59;100.00;100384.59;4935157;29;20513;-72
2022/12/08 04:46:49;;;;;;;25.00;16.33;;;;;;;0.64;100.00;100374.78;4935078;29;20047;-72
2022/12/08 04:49:17;;;;;;;23.45;15.80;;;;;;;0.66;100.00;100388.03;4934587;29;20043;-72
2022/12/08 04:51:45;;;;;;;24.27;16.33;;;;;;;0.60;100.00;100370.06;4931041;29;20047;-72
2022/12/08 04:54:13;;;;;;;20.40;15.55;;;;;;;0.60;100.00;100378.97;4935207;29;20048;-72
2022/12/08 04:56:41;;;;;;;26.05;16.38;;;;;;;0.68;100.00;100375.19;4934907;29;20039;-72
2022/12/08 04:59:09;;;;;;;24.95;15.93;;;;;;;0.67;100.00;100381.59;4934531;29;20802;-72
2022/12/08 05:01:37;;;;;;;21.95;15.65;;;;;;;0.66;100.00;100388.03;4934840;29;20051;-71
2022/12/08 05:04:08;;;;;;;24.52;16.50;;;;;;;0.58;100.00;100386.44;4933585;29;20051;-72
2022/12/08 05:06:36;;;;;;;22.13;15.80;;;;;;;0.69;100.00;100387.63;4933568;29;20372;-70
2022/12/08 05:09:03;;;;;;;21.77;15.30;;;;;;;0.75;100.00;100378.66;4934049;29;20059;-71
2022/12/08 05:11:31;;;;;;;24.10;15.52;;;;;;;0.73;100.00;100386.13;4933819;29;20040;-71
2022/12/08 05:13:59;;;;;;;24.92;16.65;;;;;;;0.69;100.00;100389.47;4933150;29;20395;-72
2022/12/08 05:16:27;;;;;;;22.92;15.10;;;;;;;0.79;100.00;100390.63;4949512;29;20506;-72
2022/12/08 05:18:55;;;;;;;23.70;15.93;;;;;;;0.84;100.00;100392.69;4933100;29;20052;-71
2022/12/08 05:21:23;;;;;;;25.35;15.68;;;;;;;0.92;100.00;100386.19;4933312;29;20056;-71
2022/12/08 05:23:51;;;;;;;22.88;15.05;;;;;;;1.02;100.00;100389.19;4934148;29;20060;-72
2022/12/08 05:26:19;;;;;;;22.42;14.98;;;;;;;1.06;100.00;100385.03;4933864;29;20055;-72
2022/12/08 05:28:46;;;;;;;22.17;15.13;;;;;;;1.13;99.99;100384.16;4933410;29;20051;-70
2022/12/08 05:31:16;;;;;;;21.98;14.95;;;;;;;1.17;100.00;100380.78;4933117;29;20044;-72
2022/12/08 05:33:44;;;;;;;21.45;15.30;;;;;;;1.15;100.00;100382.88;4933024;29;20395;-71
2022/12/08 05:36:14;;;;;;;22.75;15.27;;;;;;;1.30;99.84;100389.78;4932697;29;20055;-72
2022/12/08 05:38:43;;;;;;;22.67;15.63;;;;;;;1.37;98.38;100384.31;4928404;29;20050;-71
2022/12/08 05:41:16;;;;;;;22.77;14.45;;;;;;;1.21;98.02;100378.47;4932288;29;20044;-71
2022/12/08 05:43:44;;;;;;;26.42;15.75;;;;;;;1.19;98.54;100372.47;4938364;29;20058;-72
2022/12/08 05:46:13;;;;;;;23.85;14.43;;;;;;;1.16;98.55;100371.03;4937228;29;20050;-71
2022/12/08 05:48:42;;;;;;;21.38;14.65;;;;;;;1.09;98.24;100375.69;4937099;29;20502;-71
2022/12/08 05:51:22;;;;;;;23.00;14.45;;;;;;;1.00;98.68;100375.13;4935042;29;21044;-72
2022/12/08 05:53:51;;;;;;;27.15;14.80;;;;;;;1.06;98.55;100379.63;4937212;29;20059;-72
2022/12/08 05:56:20;;;;;;;21.92;14.38;;;;;;;1.02;98.51;100377.63;4937356;29;20052;-72
2022/12/08 05:58:48;;;;;;;24.52;15.30;;;;;;;1.05;98.63;100371.78;4937589;29;20051;-72
2022/12/08 06:01:22;;;;;;;24.35;14.82;;;;;;;1.00;98.55;100372.44;4935579;29;20055;-72
2022/12/08 06:03:51;;;;;;;26.13;15.23;;;;;;;1.07;99.37;100361.59;4937232;29;20517;-72
2022/12/08 06:06:19;;;;;;;20.58;14.45;;;;;;;1.11;99.63;100370.88;4950615;29;20052;-70
2022/12/08 06:08:48;;;;;;;22.52;13.95;;;;;;;1.14;99.88;100378.53;4936718;29;20040;-71
2022/12/08 06:11:21;;;;;;;23.15;15.18;;;;;;;1.23;99.82;100371.00;4937008;29;20055;-72
2022/12/08 06:13:49;;;;;;;21.75;13.82;;;;;;;1.22;99.50;100376.59;4936152;29;20040;-71
2022/12/08 06:16:17;;;;;;;23.85;14.55;;;;;;;1.22;99.92;100382.78;4935940;29;20487;-71
2022/12/08 06:18:45;;;;;;;19.27;13.57;;;;;;;1.25;100.00;100376.13;4937109;29;20056;-71
2022/12/08 06:21:14;;;;;;;22.63;14.57;;;;;;;1.31;100.00;100376.06;4934728;29;20055;-71
2022/12/08 06:23:42;;;;;;;20.65;13.57;;;;;;;1.38;99.41;100376.03;4934034;29;20041;-71
2022/12/08 06:26:12;;;;;;;23.63;13.73;;;;;;;1.39;99.71;100372.28;4937094;29;20039;-72
2022/12/08 06:28:41;;;;;;;22.23;13.63;;;;;;;1.34;99.64;100381.03;4930898;29;20052;-72
2022/12/08 06:31:29;;;;;;;23.10;12.88;;;;;;;1.46;100.00;100388.38;4930361;29;20415;-71
2022/12/08 06:33:57;;;;;;;19.58;12.48;;;;;;;1.47;99.57;100379.25;4923749;29;20693;-71
2022/12/08 06:36:27;;;;;;;18.42;11.85;;;;;;;1.42;99.63;100379.91;4936860;29;20040;-71
2022/12/08 06:38:55;;;;;;;19.65;12.30;;;;;;;1.38;100.00;100385.97;4937271;29;20051;-71
2022/12/08 06:41:23;;;;;;;18.67;12.93;;;;;;;1.33;100.00;100379.38;4935586;29;20052;-72
2022/12/08 06:43:54;;;;;;;20.75;12.38;;;;;;;1.33;100.00;100375.88;4937085;29;20044;-71
2022/12/08 06:46:22;;;;;;;19.38;12.93;;;;;;;1.32;100.00;100377.72;4935299;29;20063;-71
2022/12/08 06:48:50;;;;;;;18.45;12.40;;;;;;;1.36;100.00;100382.69;4936784;29;20051;-71
2022/12/08 06:51:20;;;;;;;20.23;11.95;;;;;;;1.38;100.00;100384.13;4951596;29;20047;-72
2022/12/08 06:53:49;;;;;;;18.35;12.07;;;;;;;1.49;100.00;100379.84;4936657;29;20044;-71
2022/12/08 06:56:18;;;;;;;20.50;12.48;;;;;;;1.50;100.00;100384.19;4937158;29;20048;-68
2022/12/08 06:58:46;;;;;;;18.92;12.60;;;;;;;1.55;100.00;100381.63;4935086;29;20051;-68
2022/12/08 07:01:19;;;;;;;17.67;12.25;;;;;;;1.61;100.00;100385.28;4934692;29;20419;-68
2022/12/08 07:03:47;;;;;;;20.13;12.00;;;;;;;1.61;100.00;100378.03;4935068;29;20047;-67
2022/12/08 07:06:19;;;;;;;22.30;13.75;;;;;;;1.67;99.92;100380.88;4951698;29;20048;-67
2022/12/08 07:08:47;;;;;;;22.35;13.60;;;;;;;1.65;100.00;100380.31;4937020;29;20044;-68
2022/12/08 07:11:16;;;;;;;17.65;11.68;;;;;;;1.62;99.63;100381.56;4936847;29;20478;-67
2022/12/08 07:13:49;;;;;;;19.17;11.88;;;;;;;1.58;100.00;100386.59;4925339;29;20514;-67
2022/12/08 07:16:17;;;;;;;21.30;11.98;;;;;;;1.67;99.36;100384.41;4935948;29;20486;-68
2022/12/08 07:18:45;;;;;;;18.15;11.68;;;;;;;1.65;99.47;100369.50;4936464;29;20051;-68
2022/12/08 07:21:14;;;;;;;16.02;11.13;;;;;;;1.71;98.92;100368.59;4936318;29;20513;-68
2022/12/08 07:23:45;;;;;;;19.45;11.55;;;;;;;1.68;98.72;100375.28;4934093;29;20043;-68
2022/12/08 07:26:13;;;;;;;18.20;10.63;;;;;;;1.76;98.63;100376.00;4936562;29;20044;-68
2022/12/08 07:28:41;;;;;;;16.17;11.32;;;;;;;1.76;97.73;100379.53;4935174;29;20399;-67
2022/12/08 07:31:21;;;;;;;17.80;10.35;;;;;;;1.79;98.30;100372.84;4934448;29;20051;-68
2022/12/08 07:33:50;;;;;;;16.13;10.40;;;;;;;1.82;97.40;100380.50;4935386;29;20047;-68
2022/12/08 07:36:18;;;;;;;17.25;10.77;;;;;;;1.88;97.34;100380.44;4934696;29;20411;-68
2022/12/08 07:38:48;;;;;;;18.38;11.63;;;;;;;1.95;97.78;100382.22;4936344;29;20055;-68
2022/12/08 07:41:19;;;;;;;18.42;11.05;;;;;;;1.88;97.43;100383.13;4935472;29;20058;-68
2022/12/08 07:43:52;;;;;;;16.67;10.85;;;;;;;2.10;97.29;100381.81;4935285;29;20411;-67
2022/12/08 07:46:22;;;;;;;19.05;11.40;;;;;;;2.13;96.89;100381.34;4933711;29;20055;-68
2022/12/08 07:48:52;;;;;;;19.70;12.32;;;;;;;2.20;96.63;100381.28;4935508;29;20047;-68
2022/12/08 07:51:20;;;;;;;16.40;10.90;;;;;;;2.18;96.38;100375.25;4934381;29;20044;-68
2022/12/08 07:53:49;;;;;;;15.35;10.20;;;;;;;2.37;96.22;100389.53;4917008;29;20391;-69
2022/12/08 07:56:22;;;;;;;22.23;10.80;;;;;;;2.51;96.26;100382.91;4925404;29;20047;-68
2022/12/08 07:58:50;;;;;;;14.45;10.15;;;;;;;2.56;96.69;100384.91;4935747;29;20044;-69
2022/12/08 08:01:24;;;;;;;16.38;9.85;;;;;;;2.65;96.07;100377.28;4933505;29;20051;-68
2022/12/08 08:03:53;;;;;;;17.27;10.80;;;;;;;2.69;96.50;100373.88;4935064;29;20071;-69
2022/12/08 08:06:22;;;;;;;15.75;9.05;;;;;;;2.76;95.45;100378.34;4934636;29;20394;-69
2022/12/08 08:08:50;;;;;;;14.32;8.77;;;;;;;2.75;95.53;100374.84;4935462;29;20055;-70
2022/12/08 08:11:18;;;;;;;14.88;8.75;;;;;;;2.87;94.94;100380.25;4933775;29;20040;-69
2022/12/08 08:13:49;;;;;;;17.63;9.65;;;;;;;3.04;95.36;100377.69;4933210;29;20051;-69
2022/12/08 08:16:18;;;;;;;15.23;9.52;;;;;;;3.30;94.83;100372.03;4935743;29;20059;-69
2022/12/08 08:18:48;;;;;;;14.50;8.52;;;;;;;3.82;95.17;100383.97;4934493;29;20395;-76
2022/12/08 08:21:18;;;;;;;23.52;10.82;;;;;;;4.42;92.75;100376.44;4935582;29;20056;-76
2022/12/08 08:24:06;;;;;;;16.58;9.38;;;;;;;4.75;88.65;100380.25;4934632;29;20046;-77
2022/12/08 08:26:35;;;;;;;13.65;10.05;;;;;;;4.57;86.56;100368.56;4935628;29;20050;-68
2022/12/08 08:29:03;;;;;;;13.27;7.47;;;;;;;4.37;87.68;100357.38;4934248;29;20055;-69
2022/12/08 08:31:31;;;;;;;13.13;7.85;;;;;;;4.21;88.37;100376.03;4934428;29;20032;-69
2022/12/08 08:34:03;;;;;;;11.30;7.40;;;;;;;4.33;89.02;100367.03;4934276;29;20066;-69
2022/12/08 08:36:32;;;;;;;15.82;8.48;;;;;;;4.44;88.05;100367.00;4935045;29;20055;-69
2022/12/08 08:38:59;;;;;;;11.23;6.82;;;;;;;4.65;88.14;100369.22;4933418;29;20051;-69
2022/12/08 08:41:27;;;;;;;12.10;7.72;;;;;;;4.62;87.49;100370.53;4934217;29;20055;-69
2022/12/08 08:43:55;;;;;;;15.05;7.72;;;;;;;4.50;88.02;100375.22;4935343;29;20479;-69
2022/12/08 08:46:23;;;;;;;13.55;7.90;;;;;;;4.33;88.92;100370.56;4933632;29;20356;-69
2022/12/08 08:48:51;;;;;;;11.50;7.22;;;;;;;4.39;89.97;100372.31;4934158;29;20483;-68
2022/12/08 08:51:19;;;;;;;11.00;7.60;;;;;;;4.47;90.12;100373.81;4932516;29;20048;-69
2022/12/08 08:53:47;;;;;;;12.43;7.72;;;;;;;4.42;90.69;100371.84;4933915;29;20437;-71
2022/12/08 08:56:20;;;;;;;11.32;7.57;;;;;;;4.65;90.12;100378.16;4953352;28;20051;-71
2022/12/08 08:58:49;;;;;;;13.77;8.35;;;;;;;4.71;90.95;100374.47;4933242;29;20043;-72
2022/12/08 09:01:21;;;;;;;12.65;9.15;;;;;;;4.94;90.19;100383.53;4926087;29;20063;-71
2022/12/08 09:03:50;;;;;;;15.85;8.93;;;;;;;5.27;88.87;100375.59;4916094;29;20048;-70
2022/12/08 09:06:19;;;;;;;19.58;9.50;;;;;;;5.54;88.40;100374.91;4935197;29;20051;-71
2022/12/08 09:08:47;;;;;;;13.80;8.73;;;;;;;5.70;87.65;100385.94;4918610;29;20048;-70
2022/12/08 09:11:17;;;;;;;12.07;8.25;;;;;;;5.98;86.20;100384.94;4918049;29;20063;-70
2022/12/08 09:13:49;;;;;;;14.10;8.73;;;;;;;6.11;85.67;100381.03;4925733;29;20922;-70
2022/12/08 09:16:18;;;;;;;16.80;9.43;;;;;;;6.22;84.21;100375.72;4926467;29;20052;-69
2022/12/08 09:18:49;;;;;;;19.30;8.00;;;;;;;6.12;84.57;100369.06;4933523;29;20040;-70
2022/12/08 09:21:21;;;;;;;13.57;9.45;;;;;;;6.11;85.06;100372.88;4934564;29;20047;-69
2022/12/08 09:23:51;;;;;;;13.57;8.38;;;;;;;6.31;85.14;100376.91;4932913;29;20047;-69
2022/12/08 09:26:21;;;;;;;17.92;9.80;;;;;;;6.81;83.15;100393.94;4934398;29;20048;-70
2022/12/08 09:28:50;;;;;;;17.30;10.43;;;;;;;7.13;82.26;100389.53;4948986;29;20047;-68
2022/12/08 09:31:20;;;;;;;10.40;7.53;;;;;;;7.00;82.34;100388.13;4934819;29;20403;-68
2022/12/08 09:33:52;;;;;;;12.88;8.82;;;;;;;7.11;82.74;100386.28;4947516;28;20044;-66
2022/12/08 09:36:20;;;;;;;13.60;8.75;;;;;;;7.05;82.76;100385.44;4927704;29;20227;-67
2022/12/08 09:38:49;;;;;;;10.85;7.13;;;;;;;6.85;84.00;100375.22;4933646;29;20509;-68
2022/12/08 09:41:48;;;;;;;13.43;6.57;;;;;;;7.33;83.50;100371.72;4931350;29;20063;-68
2022/12/08 09:44:31;;;;;;;9.43;6.75;;;;;;;7.33;83.39;100382.63;4932015;29;20054;-68
2022/12/08 09:47:02;;;;;;;11.50;7.03;;;;;;;7.11;84.81;100378.13;4931415;29;20048;-69
2022/12/08 09:49:40;;;;;;;14.60;8.38;;;;;;;7.01;84.47;100372.59;4932434;29;20039;-70
2022/12/08 09:52:24;;;;;;;9.95;7.07;;;;;;;7.04;84.08;100367.44;4948595;29;20483;-71
2022/12/08 09:54:52;;;;;;;11.95;7.95;;;;;;;7.14;85.44;100372.16;4932557;29;20507;-72
2022/12/08 09:57:23;;;;;;;14.18;9.70;;;;;;;7.30;86.49;100369.53;4947651;29;20051;-71
2022/12/08 09:59:58;;;;;;;20.83;11.70;;;;;;;7.32;87.05;100370.91;4933005;29;20051;-70
2022/12/08 10:02:29;;;;;;;16.48;11.15;;;;;;;7.28;86.45;100367.06;4938687;28;20052;-71
2022/12/08 10:04:58;;;;;;;22.17;11.43;;;;;;;7.21;87.21;100372.75;4927736;29;20055;-71
2022/12/08 10:07:35;;;;;;;16.95;10.90;;;;;;;7.31;85.67;100371.97;4948256;28;20052;-72
2022/12/08 10:10:35;;;;;;;16.88;10.75;;;;;;;7.35;85.23;100369.56;4921487;29;20044;-71
2022/12/08 10:13:16;;;;;;;17.98;11.38;;;;;;;7.43;85.45;100357.34;4925353;29;20058;-72
2022/12/08 10:15:58;;;;;;;20.65;11.27;;;;;;;7.33;85.96;100358.13;4931040;29;20059;-71
2022/12/08 10:18:29;;;;;;;17.45;9.80;;;;;;;7.37;85.95;100364.66;4934274;29;20044;-71
2022/12/08 10:21:15;;;;;;;16.13;10.13;;;;;;;7.51;86.92;100359.56;4924151;29;20541;-72
2022/12/08 10:23:48;;;;;;;14.93;10.07;;;;;;;7.73;85.37;100351.22;4931380;29;20070;-71
2022/12/08 10:26:19;;;;;;;18.33;10.70;;;;;;;7.68;86.93;100364.84;4935782;29;20040;-71
2022/12/08 10:28:48;;;;;;;17.17;10.93;;;;;;;7.63;86.05;100360.16;4929519;29;20114;-71
2022/12/08 10:31:20;;;;;;;18.45;11.73;;;;;;;7.46;86.29;100357.63;4936791;29;20411;-71
2022/12/08 10:34:09;;;;;;;17.90;11.95;;;;;;;7.54;86.38;100350.88;4936143;29;20043;-70
2022/12/08 10:36:49;;;;;;;21.27;12.60;;;;;;;7.70;83.85;100348.19;4952099;29;20047;-71
2022/12/08 10:39:39;;;;;;;18.63;13.13;;;;;;;7.83;85.96;100344.16;4935830;29;20102;-71
2022/12/08 10:42:09;;;;;;;16.13;10.95;;;;;;;7.75;85.26;100331.88;4932635;29;20043;-71
2022/12/08 10:44:54;;;;;;;21.50;12.98;;;;;;;7.86;85.58;100339.00;4950649;29;20055;-70
2022/12/08 10:47:25;;;;;;;19.30;12.20;;;;;;;7.91;83.45;100339.03;4935712;29;20046;-68
2022/12/08 10:50:07;;;;;;;21.25;12.23;;;;;;;8.41;81.65;100326.84;4937068;29;20495;-68
2022/12/08 10:52:40;;;;;;;15.80;10.82;;;;;;;8.41;79.43;100332.31;4936812;29;20044;-68
2022/12/08 10:55:19;;;;;;;20.02;11.27;;;;;;;8.52;78.82;100323.06;4937294;29;20410;-69
2022/12/08 10:57:47;;;;;;;18.60;11.23;;;;;;;9.04;78.92;100320.28;4935836;29;20052;-68
2022/12/08 11:00:21;;;;;;;14.90;10.25;;;;;;;8.76;77.63;100322.53;4935408;29;20047;-69
2022/12/08 11:03:02;;;;;;;16.08;9.38;;;;;;;8.63;78.27;100320.34;4934530;29;20059;-70
2022/12/08 11:05:34;;;;;;;17.00;10.68;;;;;;;8.73;77.69;100317.59;4935421;29;20043;-68
2022/12/08 11:08:04;;;;;;;16.27;10.20;;;;;;;8.57;79.52;100309.41;4935457;29;20050;-68
2022/12/08 11:10:36;;;;;;;15.43;9.88;;;;;;;8.86;77.72;100316.25;4935391;29;20048;-68
2022/12/08 11:13:12;;;;;;;16.80;9.70;;;;;;;9.02;76.24;100325.22;4933070;29;20483;-68
2022/12/08 11:15:43;;;;;;;16.25;10.20;;;;;;;8.81;78.61;100319.78;4934626;29;20071;-69
2022/12/08 11:18:25;;;;;;;18.83;9.70;;;;;;;8.67;79.58;100313.25;4934650;29;20055;-68
2022/12/08 11:21:01;;;;;;;16.45;10.68;;;;;;;8.50;80.70;100325.22;4932716;29;20055;-69
2022/12/08 11:23:29;;;;;;;16.45;11.00;;;;;;;8.03;80.52;100316.16;4936559;29;20047;-69
2022/12/08 11:26:07;;;;;;;19.10;11.30;;;;;;;7.47;86.23;100310.25;4935575;29;20047;-69
2022/12/08 11:28:43;;;;;;;18.52;12.23;;;;;;;7.45;85.58;100319.78;4925150;29;20047;-69
2022/12/08 11:31:44;;;;;;;18.77;11.90;;;;;;;8.09;84.20;100312.38;4932600;29;20048;-69
2022/12/08 11:34:31;;;;;;;22.60;12.70;;;;;;;7.87;84.70;100321.56;4927963;29;20051;-69
2022/12/08 11:37:10;;;;;;;21.05;12.60;;;;;;;8.11;84.04;100310.19;4925334;29;20074;-69
2022/12/08 11:39:48;;;;;;;21.17;13.57;;;;;;;8.11;82.53;100307.44;4929672;29;20052;-68